Time;durP1;ratioP1;P1;durP2;ratioP2;P2;SDS_P1;SDS_P2;PMS_P1;PMS_P2;Temp;Humidity;BMP_temperature;BMP_pressure;BME280_temperature;BME280_humidity;BME280_pressure;Samples;Min_cycle;Max_cycle;Signal;HPM_P1;HPM_P2
2021/03/29 00:04:40;;;;;;;2.30;1.27;;;18.20;56.10;;;;;;10410249;28;20189;-24
2021/03/29 00:10:04;;;;;;;2.33;1.40;;;18.20;56.20;;;;;;10409432;28;20217;-21
2021/03/29 00:15:30;;;;;;;2.53;1.43;;;18.20;56.10;;;;;;10449141;28;20193;-23
2021/03/29 00:20:55;;;;;;;2.03;1.27;;;18.20;56.10;;;;;;10451354;28;20216;-22
2021/03/29 00:26:17;;;;;;;1.57;0.90;;;18.20;56.10;;;;;;10450705;28;20204;-22
2021/03/29 00:31:40;;;;;;;1.73;1.20;;;18.10;56.10;;;;;;10458879;28;20229;-22
2021/03/29 00:37:03;;;;;;;1.47;1.07;;;18.10;56.20;;;;;;10458597;28;21047;-22
2021/03/29 00:42:25;;;;;;;3.00;1.20;;;18.10;56.10;;;;;;10472966;28;20208;-22
2021/03/29 00:47:49;;;;;;;1.30;0.90;;;18.10;56.10;;;;;;10499207;28;20671;-22
2021/03/29 00:53:11;;;;;;;2.10;1.27;;;18.10;56.10;;;;;;10498563;28;20591;-23
2021/03/29 00:58:35;;;;;;;1.97;1.10;;;18.10;56.10;;;;;;10490746;28;20202;-22
2021/03/29 01:04:00;;;;;;;1.30;1.00;;;18.10;56.10;;;;;;10457726;28;20193;-23
2021/03/29 01:09:25;;;;;;;1.37;0.90;;;18.10;56.20;;;;;;10457305;28;20221;-25
2021/03/29 01:14:50;;;;;;;1.80;1.20;;;18.10;56.30;;;;;;10457304;28;20227;-23
2021/03/29 01:20:28;;;;;;;2.23;1.07;;;18.10;56.20;;;;;;10456914;28;20217;-21
2021/03/29 01:25:59;;;;;;;2.27;1.13;;;18.10;56.10;;;;;;10457712;28;20200;-24
2021/03/29 01:31:21;;;;;;;2.00;1.10;;;18.10;56.10;;;;;;10456432;28;20209;-23
2021/03/29 01:36:45;;;;;;;1.70;1.10;;;18.10;56.00;;;;;;10442020;28;20609;-23
2021/03/29 01:42:07;;;;;;;1.93;1.17;;;18.10;56.10;;;;;;10436874;28;20212;-23
2021/03/29 01:47:31;;;;;;;1.73;1.20;;;18.10;56.10;;;;;;10486842;28;20200;-22
2021/03/29 01:52:53;;;;;;;2.07;1.20;;;18.10;56.20;;;;;;10455703;28;20228;-24
2021/03/29 01:58:15;;;;;;;2.73;1.00;;;18.00;56.20;;;;;;10455595;28;20236;-23
2021/03/29 02:03:40;;;;;;;1.77;1.10;;;18.00;56.20;;;;;;10455623;28;20506;-20
2021/03/29 02:09:01;;;;;;;1.63;0.90;;;18.10;56.20;;;;;;10455029;28;20267;-26
2021/03/29 02:14:26;;;;;;;1.40;0.93;;;18.10;56.20;;;;;;10438892;28;20225;-24
2021/03/29 02:19:49;;;;;;;3.13;1.13;;;18.10;56.10;;;;;;10413010;28;20410;-23
2021/03/29 02:25:12;;;;;;;1.30;0.90;;;18.10;56.10;;;;;;10413419;28;20232;-27
2021/03/29 02:30:35;;;;;;;1.00;0.83;;;18.00;56.20;;;;;;10412470;28;20217;-24
2021/03/29 02:35:58;;;;;;;2.00;1.30;;;18.00;56.20;;;;;;10419955;28;20298;-24
2021/03/29 02:41:23;;;;;;;2.20;1.10;;;18.00;56.30;;;;;;10458558;28;20592;-26
2021/03/29 02:46:47;;;;;;;1.73;0.97;;;18.00;56.20;;;;;;10494147;28;20189;-23
2021/03/29 02:52:10;;;;;;;2.87;1.20;;;18.10;56.20;;;;;;10493210;28;20209;-23
2021/03/29 02:57:33;;;;;;;2.30;1.00;;;18.10;56.10;;;;;;10495322;28;20207;-23
2021/03/29 03:02:59;;;;;;;1.40;0.90;;;18.10;56.10;;;;;;10493441;28;20231;-25
2021/03/29 03:08:22;;;;;;;1.70;1.03;;;18.00;56.10;;;;;;10450001;28;20201;-23
2021/03/29 03:13:44;;;;;;;1.73;1.20;;;18.00;56.20;;;;;;10452608;28;20216;-23
2021/03/29 03:19:07;;;;;;;1.73;1.27;;;18.00;56.20;;;;;;10453134;28;20580;-22
2021/03/29 03:24:34;;;;;;;1.70;0.93;;;18.00;56.40;;;;;;10452560;28;20576;-23
2021/03/29 03:29:55;;;;;;;2.37;1.03;;;18.00;56.30;;;;;;10452222;28;20245;-21
2021/03/29 03:35:18;;;;;;;1.57;0.83;;;18.00;56.20;;;;;;10452220;28;20213;-23
2021/03/29 03:40:43;;;;;;;1.90;1.00;;;18.10;56.10;;;;;;10450683;28;20209;-23
2021/03/29 03:46:08;;;;;;;1.73;1.00;;;18.10;55.90;;;;;;10410817;28;20789;-20
2021/03/29 03:51:30;;;;;;;1.33;0.70;;;18.20;55.80;;;;;;10413327;28;20228;-25
2021/03/29 03:56:54;;;;;;;1.37;0.80;;;18.20;55.50;;;;;;10409329;28;20198;-26
2021/03/29 04:02:16;;;;;;;1.20;0.80;;;18.30;55.40;;;;;;10447151;22;20672;-20
2021/03/29 04:07:38;;;;;;;2.07;0.97;;;18.30;55.40;;;;;;10448404;28;20200;-20
2021/03/29 04:13:00;;;;;;;1.77;0.80;;;18.30;55.50;;;;;;10458036;28;20213;-20
2021/03/29 04:18:22;;;;;;;1.57;0.80;;;18.30;55.60;;;;;;10459365;28;20208;-23
2021/03/29 04:23:44;;;;;;;1.40;0.70;;;18.30;55.50;;;;;;10457490;28;20224;-17
2021/03/29 04:29:07;;;;;;;1.73;1.10;;;18.30;55.40;;;;;;10458203;28;20196;-20
2021/03/29 04:34:28;;;;;;;1.40;1.00;;;18.40;55.20;;;;;;10459303;28;20209;-20
2021/03/29 04:39:51;;;;;;;3.03;1.03;;;18.40;55.10;;;;;;10458330;28;20217;-20
2021/03/29 04:45:15;;;;;;;1.47;1.00;;;18.40;55.10;;;;;;10458316;28;20244;-17
2021/03/29 04:50:37;;;;;;;2.43;1.00;;;18.40;55.20;;;;;;10457010;28;20224;-17
2021/03/29 04:55:59;;;;;;;2.90;1.30;;;18.50;55.80;;;;;;10456966;28;20193;-21
2021/03/29 05:01:22;;;;;;;2.10;1.10;;;18.50;55.20;;;;;;10456586;28;20303;-20
2021/03/29 05:06:43;;;;;;;2.03;1.00;;;18.50;55.10;;;;;;10458070;28;20197;-17
2021/03/29 05:12:11;;;;;;;1.37;0.80;;;18.50;55.10;;;;;;10494819;28;20703;-21
2021/03/29 05:17:34;;;;;;;1.57;1.10;;;18.50;55.10;;;;;;10415556;28;20276;-21
2021/03/29 05:22:56;;;;;;;2.90;1.00;;;18.50;55.10;;;;;;10412607;28;20213;-20
2021/03/29 05:28:17;;;;;;;1.63;0.93;;;18.50;55.20;;;;;;10413663;28;20198;-21
2021/03/29 05:33:40;;;;;;;1.33;0.90;;;18.50;55.10;;;;;;10414750;28;20217;-21
2021/03/29 05:39:01;;;;;;;1.13;0.60;;;18.60;55.00;;;;;;10446350;28;20208;-21
2021/03/29 05:44:25;;;;;;;4.50;1.80;;;18.60;55.50;;;;;;10441873;28;20687;-19
2021/03/29 05:49:47;;;;;;;4.83;1.63;;;18.60;52.80;;;;;;10453159;28;20216;-21
2021/03/29 05:55:13;;;;;;;5.63;2.17;;;18.60;50.80;;;;;;10489231;28;20224;-24
2021/03/29 06:00:41;;;;;;;7.93;2.13;;;18.70;50.50;;;;;;10447843;28;20715;-20
2021/03/29 06:06:18;;;;;;;7.77;2.90;;;18.80;49.90;;;;;;10448947;28;20525;-20
2021/03/29 06:11:41;;;;;;;5.80;2.30;;;19.00;48.50;;;;;;10447760;28;20223;-22
2021/03/29 06:17:04;;;;;;;6.80;2.37;;;19.10;47.90;;;;;;10447916;28;20205;-22
2021/03/29 06:22:29;;;;;;;8.80;2.73;;;19.10;47.90;;;;;;10447331;28;20636;-21
2021/03/29 06:27:52;;;;;;;6.00;2.00;;;19.10;47.80;;;;;;10447385;28;20208;-23
2021/03/29 06:33:15;;;;;;;5.97;2.30;;;19.10;48.00;;;;;;10446657;28;20232;-25
2021/03/29 06:38:37;;;;;;;5.57;2.40;;;19.20;47.60;;;;;;10448057;28;20193;-20
2021/03/29 06:43:59;;;;;;;4.70;2.07;;;19.30;47.10;;;;;;10446909;28;20192;-22
2021/03/29 06:49:44;;;;;;;7.93;2.47;;;19.20;46.90;;;;;;10448290;28;20259;-21
2021/03/29 06:55:21;;;;;;;7.37;2.17;;;19.20;47.50;;;;;;10441995;28;20225;-22
2021/03/29 07:00:43;;;;;;;4.10;1.97;;;19.30;48.00;;;;;;10404661;28;20728;-24
2021/03/29 07:06:05;;;;;;;3.77;1.80;;;19.40;48.30;;;;;;10405967;28;20208;-22
2021/03/29 07:11:28;;;;;;;6.43;2.23;;;19.40;47.80;;;;;;10482513;28;20217;-22
2021/03/29 07:16:52;;;;;;;6.27;2.00;;;19.40;47.50;;;;;;10425884;28;20201;-20
2021/03/29 07:22:15;;;;;;;7.93;2.07;;;19.40;47.60;;;;;;10405073;28;20209;-22
2021/03/29 07:27:44;;;;;;;5.07;2.00;;;19.40;48.10;;;;;;10434955;28;20354;-22
2021/03/29 07:33:07;;;;;;;4.53;1.90;;;19.50;47.90;;;;;;10445260;28;20221;-22
2021/03/29 07:38:55;;;;;;;6.37;2.00;;;19.60;48.40;;;;;;10458298;28;20215;-17
2021/03/29 07:44:19;;;;;;;6.17;2.10;;;19.60;48.20;;;;;;10455465;28;20228;-19
2021/03/29 07:49:43;;;;;;;4.73;1.70;;;19.60;48.40;;;;;;10478677;28;20232;-22
2021/03/29 07:55:18;;;;;;;6.20;1.90;;;19.60;48.80;;;;;;10478856;28;20209;-22
2021/03/29 08:01:01;;;;;;;5.07;1.80;;;19.70;49.00;;;;;;10422961;28;20232;-21
2021/03/29 08:06:38;;;;;;;5.10;1.90;;;19.70;49.10;;;;;;10445393;28;20891;-22
2021/03/29 08:12:03;;;;;;;5.07;1.60;;;19.80;49.40;;;;;;10464789;28;20213;-21
2021/03/29 08:17:48;;;;;;;4.47;1.50;;;19.70;49.10;;;;;;10444693;28;20193;-21
2021/03/29 08:23:33;;;;;;;6.13;1.50;;;19.90;49.00;;;;;;10444392;28;20220;-22
2021/03/29 08:29:29;;;;;;;2.67;1.53;;;20.00;48.80;;;;;;10444610;28;20196;-21
2021/03/29 08:34:59;;;;;;;2.60;1.30;;;20.10;48.90;;;;;;10444078;28;20673;-24
2021/03/29 08:40:23;;;;;;;3.73;1.60;;;20.20;48.80;;;;;;10442596;28;20217;-23
2021/03/29 08:45:46;;;;;;;3.27;1.30;;;20.20;48.30;;;;;;10403537;28;20601;-19
2021/03/29 08:51:20;;;;;;;3.47;1.57;;;20.00;48.60;;;;;;10408486;28;20287;-20
2021/03/29 08:56:44;;;;;;;3.73;1.60;;;20.00;48.90;;;;;;10413506;28;20203;-20
2021/03/29 09:02:13;;;;;;;4.27;1.40;;;19.90;49.50;;;;;;10435137;28;20591;-21
2021/03/29 09:07:38;;;;;;;4.40;1.50;;;19.70;50.70;;;;;;10446607;28;20194;-21
2021/03/29 09:13:01;;;;;;;4.37;1.63;;;19.80;50.00;;;;;;10442454;28;20572;-21
2021/03/29 09:18:26;;;;;;;6.43;1.63;;;19.80;49.70;;;;;;10456319;28;20252;-20
2021/03/29 09:23:49;;;;;;;5.30;1.50;;;19.90;49.10;;;;;;10456178;28;20281;-20
2021/03/29 09:29:22;;;;;;;3.73;1.23;;;19.90;49.50;;;;;;10456396;28;20198;-21
2021/03/29 09:34:46;;;;;;;3.00;1.50;;;20.00;49.80;;;;;;10454776;28;20217;-21
2021/03/29 09:40:09;;;;;;;5.70;1.80;;;19.90;49.80;;;;;;10454976;28;20224;-22
2021/03/29 09:45:33;;;;;;;5.47;1.73;;;19.90;50.00;;;;;;10468717;28;20195;-23
2021/03/29 09:50:54;;;;;;;4.53;1.53;;;19.80;50.20;;;;;;10453933;28;20215;-20
2021/03/29 09:56:27;;;;;;;2.87;1.40;;;19.80;50.30;;;;;;10470874;28;20208;-20
2021/03/29 10:01:49;;;;;;;5.73;1.57;;;19.80;50.60;;;;;;10455476;28;20221;-21
2021/03/29 10:07:15;;;;;;;3.37;1.40;;;19.80;50.60;;;;;;10448134;28;20197;-20
2021/03/29 10:12:37;;;;;;;3.40;1.60;;;19.90;50.50;;;;;;10450012;28;20222;-20
2021/03/29 10:18:07;;;;;;;9.77;1.50;;;19.70;50.90;;;;;;10484354;28;20202;-19
2021/03/29 10:23:30;;;;;;;3.30;1.23;;;19.90;50.90;;;;;;10493746;28;20213;-19
2021/03/29 10:29:03;;;;;;;2.67;1.27;;;20.20;50.50;;;;;;10452424;28;20203;-21
2021/03/29 10:34:24;;;;;;;3.23;1.53;;;20.50;50.00;;;;;;10453626;28;20269;-19
2021/03/29 10:39:46;;;;;;;7.80;2.57;;;20.70;49.40;;;;;;10452839;28;20224;-21
2021/03/29 10:45:11;;;;;;;15.50;4.77;;;20.90;49.60;;;;;;10452311;28;20240;-20
2021/03/29 10:50:32;;;;;;;21.43;5.73;;;21.00;49.40;;;;;;10452708;28;20229;-20
2021/03/29 10:55:54;;;;;;;20.40;7.47;;;21.10;49.30;;;;;;10451925;28;20432;-16
2021/03/29 11:01:16;;;;;;;16.00;7.50;;;21.20;48.90;;;;;;10451306;28;20700;-19
2021/03/29 11:06:39;;;;;;;19.23;7.13;;;20.60;50.00;;;;;;10451373;28;20204;-24
2021/03/29 11:12:01;;;;;;;19.63;7.43;;;20.20;51.10;;;;;;10448912;28;20217;-21
2021/03/29 11:17:26;;;;;;;19.43;7.03;;;20.00;51.60;;;;;;10451774;28;20207;-18
2021/03/29 11:22:48;;;;;;;17.03;6.60;;;20.00;51.60;;;;;;10451007;28;20762;-20
2021/03/29 11:28:10;;;;;;;20.60;7.33;;;20.10;51.50;;;;;;10450206;28;20595;-22
2021/03/29 11:33:32;;;;;;;20.10;7.73;;;20.10;51.30;;;;;;10451139;28;20224;-20
2021/03/29 11:38:54;;;;;;;16.23;6.60;;;20.10;51.50;;;;;;10450098;28;20572;-22
2021/03/29 11:44:16;;;;;;;20.10;6.97;;;20.10;51.70;;;;;;10450322;28;20239;-21
2021/03/29 11:49:38;;;;;;;13.43;6.43;;;20.10;51.60;;;;;;10450985;28;20231;-17
2021/03/29 11:55:00;;;;;;;17.00;6.73;;;20.10;51.50;;;;;;10451273;28;20600;-20
2021/03/29 12:00:27;;;;;;;17.97;6.90;;;20.10;51.60;;;;;;10449377;28;20232;-18
2021/03/29 12:05:52;;;;;;;15.27;6.30;;;20.00;51.90;;;;;;10450400;28;20187;-20
2021/03/29 12:16:55;;;;;;;11.07;5.17;;;20.00;51.70;;;;;;10409080;28;20235;-21
2021/03/29 12:22:23;;;;;;;12.37;5.20;;;19.90;52.00;;;;;;10408556;28;20300;-21
2021/03/29 12:27:46;;;;;;;11.80;5.07;;;19.80;52.40;;;;;;10447801;28;20192;-20
2021/03/29 12:33:09;;;;;;;11.97;4.20;;;19.90;52.20;;;;;;10456905;28;20213;-21
2021/03/29 12:38:35;;;;;;;11.83;4.47;;;19.80;52.50;;;;;;10442882;28;20585;-18
2021/03/29 12:43:59;;;;;;;9.80;4.07;;;19.80;52.90;;;;;;10450488;28;20220;-22
2021/03/29 12:49:22;;;;;;;11.10;4.07;;;19.80;53.10;;;;;;10452393;28;20220;-18
2021/03/29 12:54:45;;;;;;;8.10;3.70;;;19.80;53.20;;;;;;10492430;28;20442;-21
2021/03/29 13:00:11;;;;;;;9.70;3.63;;;19.70;53.30;;;;;;10492148;28;20584;-21
2021/03/29 13:05:37;;;;;;;7.43;3.27;;;19.70;53.40;;;;;;10451063;28;20205;-20
2021/03/29 13:11:05;;;;;;;10.00;4.00;;;19.70;53.40;;;;;;10449840;28;20285;-21
2021/03/29 13:16:28;;;;;;;6.07;2.97;;;19.70;53.40;;;;;;10424848;28;20601;-20
2021/03/29 13:21:49;;;;;;;9.83;3.30;;;19.80;53.50;;;;;;10443586;28;20572;-21
